MicroStrategy Price to Book Ratio 2006-2021 | MSTR

Historical price to book ratio values for MicroStrategy (MSTR) over the last 10 years. The current price to book ratio for MicroStrategy as of September 20, 2021 is 77.34.

Please refer to the Stock Price Adjustment Guide for more information on our historical prices.

MicroStrategy Price/Book Ratio Historical Data
Date Stock Price Book Value per Share Price to Book Ratio
2021-09-20 588.39 74.09
2021-06-30 664.50 $7.94 83.67
2021-03-31 678.80 $37.46 18.12
2020-12-31 388.55 $57.69 6.74
2020-09-30 150.56 $42.01 3.58
2020-06-30 118.29 $47.33 2.50
2020-03-31 118.10 $47.26 2.50
2019-12-31 142.63 $50.27 2.84
2019-09-30 148.37 $50.20 2.96
2019-06-30 143.31 $49.09 2.92
2019-03-31 144.25 $46.72 3.09
2018-12-31 127.75 $50.04 2.55
2018-09-30 140.62 $55.41 2.54
2018-06-30 127.75 $54.10 2.36
2018-03-31 128.99 $53.60 2.41
2017-12-31 131.30 $52.92 2.48
2017-09-30 127.71 $53.49 2.39
2017-06-30 191.67 $51.51 3.72
2017-03-31 187.80 $49.99 3.76
2016-12-31 197.40 $48.29 4.09
2016-09-30 167.44 $45.48 3.68
2016-06-30 175.02 $42.83 4.09
2016-03-31 179.72 $40.95 4.39
2015-12-31 179.29 $39.93 4.49
2015-09-30 196.47 $35.95 5.47
2015-06-30 170.08 $33.50 5.08
2015-03-31 169.19 $30.75 5.50
2014-12-31 162.40 $28.69 5.66
2014-09-30 130.84 $26.47 4.94
2014-06-30 140.62 $26.38 5.33
2014-03-31 115.39 $27.05 4.27
2013-12-31 124.24 $27.46 4.52
2013-09-30 103.76 $25.85 4.01
2013-06-30 86.96 $24.20 3.59
2013-03-31 101.08 $24.32 4.16
2012-12-31 93.38 $17.75 5.26
2012-09-30 134.07 $16.96 7.90
2012-06-30 129.86 $16.39 7.92
2012-03-31 140.00 $15.73 8.90
2011-12-31 108.32 $15.67 6.91
2011-09-30 114.07 $15.24 7.49
2011-06-30 162.68 $14.61 11.13
2011-03-31 134.48 $14.35 9.37
2010-12-31 85.47 $14.02 6.10
2010-09-30 86.61 $14.41 6.01
2010-06-30 75.09 $16.58 4.53
2010-03-31 85.07 $17.47 4.87
2009-12-31 94.02 $17.93 5.24
2009-09-30 71.54 $16.15 4.43
2009-06-30 50.22 $14.35 3.50
2009-03-31 34.19 $13.50 2.53
2008-12-31 37.13 $11.61 3.20
2008-09-30 59.53 $10.47 5.69
2008-06-30 64.75 $9.63 6.73
2008-03-31 73.99 $9.05 8.17
2007-12-31 95.10 $8.64 11.00
2007-09-30 79.34 $8.99 8.82
2007-06-30 94.49 $8.65 10.93
2007-03-31 126.39 $7.70 16.42
2006-12-31 114.01 $10.49 10.87
2006-09-30 101.83 $8.25 12.34
2006-06-30 97.52 $8.26 11.81
2006-03-31 105.29 $10.65 9.89
Sector Industry Market Cap Revenue
Computer and Technology Computer Software $5.988B $0.481B
MicroStrategy Incorporated, a leading worldwide provider of business intelligence software, today announced that GT Nexus has selected MicroStrategy to power the customer-facing analytics and reporting capabilities on its Global Logistics portal. The GT Nexus portal is an on demand technology platform that is used by importers, exporters, transportation carriers, suppliers, banks, and other partners to manage goods that are moving around the world. The GT Nexus system captures and stores hard-to-get data associated with global supply chains, and then fuels a range of Web applications that can be used by constituents to lower supply chain costs and improve control. MicroStrategy will help GT Nexus to deliver a wide range of analytics and reporting capabilities to its customers, which include Home Depot, Kmart, Xerox, Weyerhaeuser, and American Eagle Outfitters.
Stock Name Country Market Cap PE Ratio
Microsoft (MSFT) United States $2253.490B 37.63
Adobe (ADBE) United States $311.794B 67.19
Salesforce, Inc (CRM) United States $255.059B 76.18
Oracle (ORCL) United States $236.551B 20.42
SAP SE (SAP) Germany $176.069B 22.39
Intuit (INTU) United States $153.437B 74.91
Dassault Systemes SA (DASTY) France $78.049B 68.53
Autodesk (ADSK) United States $63.350B 105.94
VMware (VMW) United States $58.487B 27.49
Synopsys (SNPS) United States $49.646B 67.82
Cadence Design Systems (CDNS) United States $45.290B 63.42
ANSYS (ANSS) United States $31.815B 63.97
SS&C Technologies Holdings (SSNC) United States $17.957B 16.10
Nuance Communications (NUAN) United States $17.330B 153.06
PTC (PTC) United States $14.454B 50.47
Open Text (OTEX) Canada $13.906B 15.84
Citrix Systems (CTXS) United States $13.861B 32.62
Pegasystems (PEGA) United States $10.746B 0.00
Manhattan Associates (MANH) United States $9.934B 105.87
Aspen Technology (AZPN) United States $8.519B 0.00
Trend Micro (TMICY) Japan $8.059B 30.14
Descartes Systems Group (DSGX) Canada $7.076B 100.75
BlackBerry (BB) Canada $5.687B 250.75
Cornerstone OnDemand (CSOD) United States $3.815B 22.15
ACI Worldwide (ACIW) United States $3.677B 21.44
Blackbaud (BLKB) United States $3.401B 57.98
CommVault Systems (CVLT) United States $3.396B 88.13
Verint Systems (VRNT) United States $2.904B 21.04
Progress Software (PRGS) United States $2.017B 15.57
Bottomline Technologies (EPAY) United States $1.855B 176.70
QAD (QADB) United States $1.838B 121.51
PROS Holdings (PRO) United States $1.760B 0.00
Sapiens (SPNS) Israel $1.582B 28.31
Canaan (CAN) China $1.267B 0.00
OptimizeRx (OPRX) United States $1.260B 650.00
Avid Technology (AVID) United States $1.228B 30.59
Magic Software Enterprises (MGIC) Israel $1.014B 24.62
Simulations Plus (SLP) United States $0.880B 76.67
American Software (AMSWA) United States $0.811B 87.00
Icad Inc (ICAD) United States $0.261B 0.00
Smith Micro Software (SMSI) United States $0.249B 0.00
ServiceSource (SREV) United States $0.131B 0.00
Park City (PCYG) United States $0.105B 48.91
Neonode (NEON) Sweden $0.069B 0.00
BSQUARE (BSQR) United States $0.050B 0.00
NetSol Technologies (NTWK) United States $0.045B 17.95
GSE Systems (GVP) United States $0.028B 0.00